createdAt,value
2022-11-26T00:01:24.247Z,92.93
2022-11-26T00:03:41.301Z,93.01
2022-11-26T00:05:59.685Z,92.86
2022-11-26T00:08:16.977Z,92.67
2022-11-26T00:10:39.918Z,92.76
2022-11-26T00:12:57.865Z,92.75
2022-11-26T00:15:15.212Z,93.25
2022-11-26T00:17:32.315Z,93.01
2022-11-26T00:19:49.595Z,92.14
2022-11-26T00:22:09.787Z,92.47
2022-11-26T00:24:27.833Z,91.99
2022-11-26T00:26:46.041Z,92.54
2022-11-26T00:29:03.164Z,92.28
2022-11-26T00:31:20.224Z,92.54
2022-11-26T00:33:37.498Z,92.45
2022-11-26T00:35:54.458Z,92.06
2022-11-26T00:38:11.765Z,92.20
2022-11-26T00:40:29.026Z,92.25
2022-11-26T00:42:46.129Z,91.88
2022-11-26T00:45:03.590Z,92.83
2022-11-26T00:47:20.489Z,92.07
2022-11-26T00:49:37.552Z,91.75
2022-11-26T00:51:54.547Z,91.96
2022-11-26T00:54:11.413Z,91.76
2022-11-26T00:56:28.356Z,92.38
2022-11-26T00:58:45.249Z,92.12
2022-11-26T01:01:02.408Z,92.21
2022-11-26T01:03:19.629Z,92.12
2022-11-26T01:05:36.620Z,92.32
2022-11-26T01:07:53.908Z,92.41
2022-11-26T01:10:10.977Z,92.93
2022-11-26T01:12:27.947Z,92.58
2022-11-26T01:14:45.217Z,92.97
2022-11-26T01:17:02.634Z,92.65
2022-11-26T01:19:19.706Z,93.55
2022-11-26T01:21:38.242Z,93.37
2022-11-26T01:23:55.503Z,92.68
2022-11-26T01:26:12.795Z,92.67
2022-11-26T01:28:30.650Z,92.87
2022-11-26T01:30:48.711Z,92.83
2022-11-26T01:33:05.704Z,92.36
2022-11-26T01:35:25.387Z,92.65
2022-11-26T01:37:42.382Z,93.02
2022-11-26T01:40:01.848Z,92.42
2022-11-26T01:42:18.786Z,92.65
2022-11-26T01:44:36.713Z,92.79
2022-11-26T01:46:53.967Z,93.24
2022-11-26T01:49:19.499Z,92.58
2022-11-26T01:51:36.830Z,93.03
2022-11-26T01:53:53.744Z,92.60
2022-11-26T01:56:11.083Z,91.78
2022-11-26T01:58:28.464Z,91.65
2022-11-26T02:00:45.790Z,92.64
2022-11-26T02:03:02.878Z,92.21
2022-11-26T02:05:20.115Z,92.31
2022-11-26T02:07:37.359Z,92.76
2022-11-26T02:09:58.112Z,92.79
2022-11-26T02:12:15.151Z,93.07
2022-11-26T02:14:31.977Z,92.64
2022-11-26T02:16:48.970Z,92.83
2022-11-26T02:19:06.281Z,92.39
2022-11-26T02:21:23.553Z,92.59
2022-11-26T02:23:41.504Z,92.54
2022-11-26T02:25:58.477Z,92.84
2022-11-26T02:28:15.455Z,92.78
2022-11-26T02:30:32.442Z,92.32
2022-11-26T02:32:49.481Z,92.41
2022-11-26T02:35:06.729Z,92.67
2022-11-26T02:37:23.981Z,92.17
2022-11-26T02:39:41.209Z,92.75
2022-11-26T02:41:58.490Z,92.80
2022-11-26T02:44:15.729Z,92.81
2022-11-26T02:46:34.027Z,93.08
2022-11-26T02:48:51.013Z,93.10
2022-11-26T02:51:08.254Z,93.15
2022-11-26T02:53:26.277Z,93.29
2022-11-26T02:55:43.543Z,92.87
2022-11-26T02:58:00.438Z,92.58
2022-11-26T03:00:18.425Z,92.83
2022-11-26T03:02:35.656Z,93.06
2022-11-26T03:04:52.554Z,92.91
2022-11-26T03:07:09.597Z,92.75
2022-11-26T03:09:27.160Z,92.94
2022-11-26T03:11:45.081Z,93.28
2022-11-26T03:14:02.309Z,93.42
2022-11-26T03:16:19.617Z,92.69
2022-11-26T03:18:36.604Z,93.20
2022-11-26T03:20:53.885Z,92.74
2022-11-26T03:23:11.824Z,93.34
2022-11-26T03:25:28.834Z,93.29
2022-11-26T03:27:46.798Z,93.83
2022-11-26T03:30:04.117Z,93.84
2022-11-26T03:32:21.396Z,93.73
2022-11-26T03:34:38.569Z,93.95
2022-11-26T03:36:56.913Z,93.78
2022-11-26T03:39:14.086Z,94.23
2022-11-26T03:41:31.439Z,93.68
2022-11-26T03:43:49.707Z,93.19
2022-11-26T03:46:07.017Z,93.52
2022-11-26T03:48:24.262Z,94.25
2022-11-26T03:50:41.312Z,94.90
2022-11-26T03:52:59.228Z,94.65
2022-11-26T03:55:16.503Z,94.61
2022-11-26T03:57:33.472Z,94.95
2022-11-26T03:59:50.524Z,94.68
2022-11-26T04:02:07.490Z,95.05
2022-11-26T04:04:25.538Z,94.67
2022-11-26T04:06:42.734Z,94.59
2022-11-26T04:09:01.033Z,94.58
2022-11-26T04:11:18.007Z,95.24
2022-11-26T04:13:35.247Z,95.15
2022-11-26T04:15:52.548Z,94.76
2022-11-26T04:18:09.776Z,94.97
2022-11-26T04:20:27.392Z,95.21
2022-11-26T04:22:44.416Z,95.63
2022-11-26T04:25:01.954Z,95.45
2022-11-26T04:27:18.916Z,94.70
2022-11-26T04:29:37.149Z,95.32
2022-11-26T04:31:54.436Z,95.02
2022-11-26T04:34:12.704Z,95.25
2022-11-26T04:36:29.708Z,96.02
2022-11-26T04:38:47.987Z,95.62
2022-11-26T04:41:07.474Z,95.36
2022-11-26T04:43:24.922Z,95.03
2022-11-26T04:45:41.973Z,94.75
2022-11-26T04:47:58.912Z,95.29
2022-11-26T04:50:16.091Z,94.82
2022-11-26T04:52:33.113Z,95.21
2022-11-26T04:54:50.661Z,95.12
2022-11-26T04:57:08.896Z,94.83
2022-11-26T04:59:26.147Z,95.10
2022-11-26T05:01:43.302Z,94.36
2022-11-26T05:04:00.608Z,94.58
2022-11-26T05:06:17.474Z,94.81
2022-11-26T05:08:34.782Z,94.78
2022-11-26T05:10:51.688Z,95.08
2022-11-26T05:13:09.900Z,95.14
2022-11-26T05:15:27.133Z,95.08
2022-11-26T05:17:44.204Z,95.42
2022-11-26T05:20:01.461Z,95.08
2022-11-26T05:22:18.795Z,95.19
2022-11-26T05:24:35.921Z,95.13
2022-11-26T05:26:56.875Z,95.23
2022-11-26T05:29:14.255Z,95.31
2022-11-26T05:31:31.612Z,95.42
2022-11-26T05:33:48.795Z,94.72
2022-11-26T05:36:07.138Z,94.76
2022-11-26T05:38:24.409Z,94.47
2022-11-26T05:40:41.670Z,94.63
2022-11-26T05:42:58.985Z,95.24
2022-11-26T05:45:16.310Z,94.66
2022-11-26T05:47:33.170Z,94.69
2022-11-26T05:49:50.722Z,95.30
2022-11-26T05:52:08.040Z,95.35
2022-11-26T05:54:25.041Z,95.62
2022-11-26T05:56:42.081Z,95.54
2022-11-26T05:58:59.061Z,95.37
2022-11-26T06:01:16.348Z,95.05
2022-11-26T06:03:33.238Z,95.71
2022-11-26T06:05:50.245Z,95.73
2022-11-26T06:08:08.512Z,94.97
2022-11-26T06:10:25.814Z,94.98
2022-11-26T06:12:42.778Z,95.11
2022-11-26T06:15:00.073Z,95.50
2022-11-26T06:17:16.961Z,95.09
2022-11-26T06:19:34.257Z,95.37
2022-11-26T06:21:51.546Z,95.28
2022-11-26T06:24:08.990Z,95.95
2022-11-26T06:26:26.022Z,95.36
2022-11-26T06:28:43.097Z,95.92
2022-11-26T06:31:00.358Z,95.87
2022-11-26T06:33:17.704Z,96.10
2022-11-26T06:35:34.722Z,95.60
2022-11-26T06:37:51.969Z,96.23
2022-11-26T06:40:09.331Z,95.84
2022-11-26T06:42:26.555Z,95.58
2022-11-26T06:44:44.147Z,96.01
2022-11-26T06:47:01.348Z,96.35
2022-11-26T06:49:18.836Z,95.94
2022-11-26T06:51:35.899Z,95.70
2022-11-26T06:53:52.926Z,95.81
2022-11-26T06:56:14.807Z,95.85
2022-11-26T06:58:35.826Z,95.65
2022-11-26T07:00:52.862Z,95.39
2022-11-26T07:03:10.039Z,95.43
2022-11-26T07:05:27.444Z,95.13
2022-11-26T07:07:44.526Z,94.99
2022-11-26T07:10:01.753Z,95.67
2022-11-26T07:12:19.037Z,95.32
2022-11-26T07:14:37.261Z,95.83
2022-11-26T07:16:54.830Z,95.92
2022-11-26T07:19:12.122Z,95.32
2022-11-26T07:21:29.093Z,95.31
2022-11-26T07:23:46.164Z,95.03
2022-11-26T07:26:04.174Z,94.61
2022-11-26T07:28:21.261Z,94.78
2022-11-26T07:30:38.609Z,94.93
2022-11-26T07:32:56.878Z,94.65
2022-11-26T07:35:13.824Z,94.76
2022-11-26T07:37:32.112Z,95.43
2022-11-26T07:39:49.447Z,94.80
2022-11-26T07:42:06.497Z,94.76
2022-11-26T07:44:24.749Z,95.11
2022-11-26T07:46:41.785Z,94.45
2022-11-26T07:48:58.796Z,94.85
2022-11-26T07:51:15.882Z,94.70
2022-11-26T07:53:32.751Z,95.10
2022-11-26T07:55:49.683Z,95.10
2022-11-26T07:58:06.624Z,94.47
2022-11-26T08:00:23.956Z,94.54
2022-11-26T08:02:41.066Z,94.67
2022-11-26T08:04:59.173Z,95.07
2022-11-26T08:07:24.323Z,95.00
2022-11-26T08:09:44.886Z,94.96
2022-11-26T08:12:02.148Z,94.99
2022-11-26T08:14:19.350Z,95.19
2022-11-26T08:16:36.389Z,95.29
2022-11-26T08:18:53.339Z,94.32
2022-11-26T08:21:10.622Z,94.41
2022-11-26T08:23:27.513Z,93.78
2022-11-26T08:26:06.106Z,93.24
2022-11-26T08:28:21.616Z,93.51
2022-11-26T08:30:38.602Z,94.14
2022-11-26T08:32:55.922Z,93.94
2022-11-26T08:35:12.969Z,94.78
2022-11-26T08:37:30.754Z,94.10
2022-11-26T08:39:47.657Z,94.50
2022-11-26T08:42:04.900Z,94.06
2022-11-26T08:44:22.125Z,93.24
2022-11-26T08:46:39.464Z,93.28
2022-11-26T08:48:56.949Z,93.77
2022-11-26T08:51:13.986Z,93.67
2022-11-26T08:53:31.265Z,92.57
2022-11-26T08:56:00.015Z,92.50
2022-11-26T08:58:17.638Z,92.50
2022-11-26T09:00:34.683Z,93.40
2022-11-26T09:02:52.052Z,93.28
2022-11-26T09:05:09.340Z,93.25
2022-11-26T09:07:26.359Z,93.23
2022-11-26T09:09:43.696Z,92.19
2022-11-26T09:12:02.021Z,92.13
2022-11-26T09:14:19.903Z,93.19
2022-11-26T09:16:37.249Z,93.19
2022-11-26T09:18:54.545Z,92.20
2022-11-26T09:21:11.469Z,92.99
2022-11-26T09:23:28.601Z,93.96
2022-11-26T09:25:45.660Z,93.52
2022-11-26T09:28:03.327Z,93.77
2022-11-26T09:30:20.347Z,93.48
2022-11-26T09:32:37.637Z,93.18
2022-11-26T09:34:54.839Z,92.48
2022-11-26T09:37:12.955Z,93.21
2022-11-26T09:39:30.923Z,93.03
2022-11-26T09:41:49.020Z,92.12
2022-11-26T09:44:06.250Z,92.05
2022-11-26T09:46:23.258Z,91.84
2022-11-26T09:48:40.196Z,92.33
2022-11-26T09:50:57.360Z,92.74
2022-11-26T09:53:14.384Z,92.21
2022-11-26T09:55:31.346Z,91.37
2022-11-26T09:57:48.470Z,91.72
2022-11-26T10:00:05.712Z,92.42
2022-11-26T10:02:23.193Z,92.91
2022-11-26T10:04:41.377Z,92.38
2022-11-26T10:06:58.786Z,93.04
2022-11-26T10:09:15.722Z,93.33
2022-11-26T10:11:32.798Z,92.79
2022-11-26T10:13:49.778Z,93.38
2022-11-26T10:16:06.835Z,92.52
2022-11-26T10:18:25.226Z,94.49
2022-11-26T10:20:42.486Z,94.19
2022-11-26T10:22:59.456Z,93.63
2022-11-26T10:25:16.722Z,93.47
2022-11-26T10:27:33.908Z,93.24
2022-11-26T10:29:50.935Z,93.37
2022-11-26T10:32:08.203Z,92.47
2022-11-26T10:34:28.924Z,92.52
2022-11-26T10:36:49.125Z,93.11
2022-11-26T10:39:06.080Z,92.57
2022-11-26T10:41:24.057Z,93.12
2022-11-26T10:43:41.383Z,93.52
2022-11-26T10:45:58.389Z,93.48
2022-11-26T10:48:16.637Z,92.24
2022-11-26T10:50:47.569Z,92.39
2022-11-26T10:53:04.990Z,91.73
2022-11-26T10:55:22.070Z,93.14
2022-11-26T10:57:39.133Z,93.04
2022-11-26T10:59:56.332Z,92.67
2022-11-26T11:02:13.460Z,93.13
2022-11-26T11:04:30.444Z,93.24
2022-11-26T11:06:47.699Z,92.98
2022-11-26T11:09:05.991Z,93.16
2022-11-26T11:11:22.915Z,93.27
2022-11-26T11:13:40.373Z,93.44
2022-11-26T11:15:57.740Z,93.53
2022-11-26T11:18:14.820Z,93.57
2022-11-26T11:20:31.751Z,93.64
2022-11-26T11:22:51.869Z,92.92
2022-11-26T11:25:11.034Z,93.12
2022-11-26T11:27:28.310Z,92.99
2022-11-26T11:29:45.604Z,93.36
2022-11-26T11:32:02.917Z,93.01
2022-11-26T11:34:20.177Z,93.62
2022-11-26T11:36:38.117Z,93.82
2022-11-26T11:38:55.364Z,93.49
2022-11-26T11:41:13.031Z,93.52
2022-11-26T11:43:30.565Z,93.83
2022-11-26T11:45:52.882Z,93.88
2022-11-26T11:48:10.393Z,94.14
2022-11-26T11:50:28.357Z,93.92
2022-11-26T11:52:45.395Z,93.64
2022-11-26T11:55:02.273Z,93.86
2022-11-26T11:57:19.159Z,93.96
2022-11-26T11:59:36.251Z,93.59
2022-11-26T12:01:53.298Z,93.66
2022-11-26T12:04:16.414Z,92.52
2022-11-26T12:06:36.389Z,93.58
2022-11-26T12:08:54.275Z,92.89
2022-11-26T12:11:11.359Z,92.88
2022-11-26T12:13:29.289Z,93.48
2022-11-26T12:15:47.476Z,93.30
2022-11-26T12:18:04.400Z,92.46
2022-11-26T12:20:21.664Z,93.05
2022-11-26T12:22:38.638Z,93.02
2022-11-26T12:24:55.569Z,92.22
2022-11-26T12:27:13.504Z,92.78
2022-11-26T12:29:31.647Z,92.26
2022-11-26T12:31:48.654Z,92.31
2022-11-26T12:34:08.724Z,92.30
2022-11-26T12:36:26.987Z,93.13
2022-11-26T12:38:44.094Z,92.63
2022-11-26T12:41:01.141Z,93.08
2022-11-26T12:43:18.482Z,92.23
2022-11-26T12:45:35.733Z,92.93
2022-11-26T12:47:52.739Z,92.12
2022-11-26T12:50:09.991Z,92.48
2022-11-26T12:52:27.261Z,92.51
2022-11-26T12:54:45.135Z,92.69
2022-11-26T12:57:02.487Z,92.05
2022-11-26T12:59:19.373Z,92.49
2022-11-26T13:01:36.724Z,91.75
2022-11-26T13:04:14.465Z,91.48
2022-11-26T13:06:30.983Z,91.08
2022-11-26T13:08:48.204Z,90.04
2022-11-26T13:11:08.819Z,90.77
2022-11-26T13:13:27.262Z,91.57
2022-11-26T13:15:44.357Z,90.42
2022-11-26T13:18:01.644Z,90.35
2022-11-26T13:20:18.790Z,90.31
2022-11-26T13:22:35.792Z,90.97
2022-11-26T13:24:52.725Z,89.79
2022-11-26T13:27:11.004Z,90.96
2022-11-26T13:29:28.299Z,91.13
2022-11-26T13:31:45.729Z,90.05
2022-11-26T13:34:02.800Z,90.10
2022-11-26T13:36:20.112Z,90.91
2022-11-26T13:38:37.244Z,90.04
2022-11-26T13:40:58.585Z,89.99
2022-11-26T13:43:16.044Z,88.71
2022-11-26T13:45:33.025Z,87.77
2022-11-26T13:47:51.033Z,87.44
2022-11-26T13:50:08.232Z,85.96
2022-11-26T13:52:25.164Z,85.06
2022-11-26T13:54:42.668Z,86.17
2022-11-26T13:57:00.136Z,85.54
2022-11-26T13:59:17.462Z,85.42
2022-11-26T14:01:34.600Z,85.14
2022-11-26T14:03:51.617Z,86.43
2022-11-26T14:06:08.621Z,86.25
2022-11-26T14:08:25.813Z,85.25
2022-11-26T14:10:42.763Z,85.67
2022-11-26T14:12:59.724Z,84.90
2022-11-26T14:15:17.047Z,86.03
2022-11-26T14:17:35.358Z,85.39
2022-11-26T14:19:52.448Z,85.40
2022-11-26T14:22:10.729Z,86.32
2022-11-26T14:24:28.997Z,85.57
2022-11-26T14:26:46.320Z,86.01
2022-11-26T14:29:06.140Z,85.13
2022-11-26T14:31:25.907Z,87.02
2022-11-26T14:33:43.807Z,87.13
2022-11-26T14:36:00.690Z,86.36
2022-11-26T14:38:17.919Z,87.59
2022-11-26T14:40:34.889Z,87.95
2022-11-26T14:42:53.264Z,87.10
2022-11-26T14:45:11.603Z,87.42
2022-11-26T14:47:29.862Z,87.13
2022-11-26T14:49:47.107Z,87.19
2022-11-26T14:52:04.354Z,87.37
2022-11-26T14:54:21.619Z,88.20
2022-11-26T14:56:38.569Z,88.61
2022-11-26T14:58:55.632Z,87.82
2022-11-26T15:01:12.929Z,88.54
2022-11-26T15:03:29.991Z,88.39
2022-11-26T15:05:47.772Z,89.15
2022-11-26T15:08:04.989Z,88.77
2022-11-26T15:10:22.282Z,89.09
2022-11-26T15:12:39.529Z,90.42
2022-11-26T15:14:56.585Z,89.27
2022-11-26T15:17:13.696Z,89.31
2022-11-26T15:19:30.664Z,89.88
2022-11-26T15:21:49.771Z,89.30
2022-11-26T15:24:07.037Z,89.72
2022-11-26T15:26:24.069Z,90.55
2022-11-26T15:28:41.309Z,90.09
2022-11-26T15:30:58.360Z,90.25
2022-11-26T15:33:15.794Z,90.88
2022-11-26T15:35:33.027Z,90.22
2022-11-26T15:37:51.191Z,90.80
2022-11-26T15:40:09.504Z,91.21
2022-11-26T15:42:26.549Z,90.48
2022-11-26T15:44:43.784Z,91.36
2022-11-26T15:47:01.259Z,90.67
2022-11-26T15:49:18.235Z,91.53
2022-11-26T15:51:36.233Z,91.24
2022-11-26T15:53:53.391Z,91.65
2022-11-26T15:56:10.746Z,91.79
2022-11-26T15:58:27.753Z,91.82
2022-11-26T16:00:44.820Z,91.83
2022-11-26T16:03:03.969Z,91.60
2022-11-26T16:05:20.881Z,91.56
2022-11-26T16:07:38.947Z,91.77
2022-11-26T16:09:56.017Z,92.02
2022-11-26T16:12:13.248Z,91.81
2022-11-26T16:14:30.514Z,92.16
2022-11-26T16:16:48.412Z,91.60
2022-11-26T16:19:06.677Z,91.59
2022-11-26T16:21:23.522Z,91.73
2022-11-26T16:23:40.543Z,91.63
2022-11-26T16:25:57.861Z,91.75
2022-11-26T16:28:14.805Z,92.22
2022-11-26T16:30:31.859Z,92.29
2022-11-26T16:32:48.838Z,92.16
2022-11-26T16:35:29.836Z,92.42
2022-11-26T16:37:42.983Z,91.98
2022-11-26T16:40:00.060Z,92.94
2022-11-26T16:42:16.982Z,92.58
2022-11-26T16:44:34.002Z,92.97
2022-11-26T16:46:50.955Z,93.18
2022-11-26T16:49:07.866Z,93.13
2022-11-26T16:51:24.914Z,93.04
2022-11-26T16:53:42.225Z,93.21
2022-11-26T16:56:00.173Z,93.21
2022-11-26T16:58:17.585Z,93.35
2022-11-26T17:00:34.856Z,93.74
2022-11-26T17:02:52.214Z,94.15
2022-11-26T17:05:09.355Z,93.85
2022-11-26T17:07:26.457Z,93.81
2022-11-26T17:09:44.658Z,94.59
2022-11-26T17:12:01.717Z,94.12
2022-11-26T17:14:19.024Z,94.03
2022-11-26T17:16:36.371Z,94.09
2022-11-26T17:18:53.433Z,94.10
2022-11-26T17:21:10.467Z,93.86
2022-11-26T17:23:27.506Z,94.55
2022-11-26T17:25:44.529Z,94.25
2022-11-26T17:28:01.853Z,94.40
2022-11-26T17:30:19.007Z,94.62
2022-11-26T17:32:36.326Z,94.59
2022-11-26T17:34:53.274Z,94.88
2022-11-26T17:37:10.486Z,94.69
2022-11-26T17:39:27.469Z,94.81
2022-11-26T17:41:44.460Z,94.94
2022-11-26T17:44:01.890Z,95.21
2022-11-26T17:46:19.340Z,95.00
2022-11-26T17:48:36.596Z,95.08
2022-11-26T17:50:53.891Z,94.91
2022-11-26T17:53:11.088Z,94.92
2022-11-26T17:55:28.473Z,94.60
2022-11-26T17:57:46.598Z,94.68
2022-11-26T18:00:03.951Z,94.83
2022-11-26T18:02:22.333Z,94.38
2022-11-26T18:04:39.651Z,94.33
2022-11-26T18:06:56.956Z,94.65
2022-11-26T18:09:14.019Z,94.36
2022-11-26T18:11:31.357Z,94.39
2022-11-26T18:13:49.699Z,94.22
2022-11-26T18:16:06.705Z,93.84
2022-11-26T18:18:24.021Z,94.13
2022-11-26T18:20:41.325Z,94.17
2022-11-26T18:22:59.360Z,94.39
2022-11-26T18:25:17.381Z,94.53
2022-11-26T18:27:34.307Z,94.57
2022-11-26T18:29:54.007Z,94.92
2022-11-26T18:32:11.209Z,94.70
2022-11-26T18:34:28.494Z,94.62
2022-11-26T18:36:50.686Z,94.84
2022-11-26T18:39:10.538Z,94.15
2022-11-26T18:41:27.456Z,94.58
2022-11-26T18:43:44.735Z,94.64
2022-11-26T18:46:02.362Z,94.65
2022-11-26T18:48:19.404Z,94.30
2022-11-26T18:50:37.646Z,94.53
2022-11-26T18:52:54.777Z,94.75
2022-11-26T18:55:14.379Z,94.53
2022-11-26T18:57:32.821Z,94.82
2022-11-26T18:59:49.899Z,94.59
2022-11-26T19:02:07.371Z,94.20
2022-11-26T19:04:24.290Z,94.50
2022-11-26T19:06:42.537Z,94.57
2022-11-26T19:08:59.578Z,94.53
2022-11-26T19:11:16.921Z,94.47
2022-11-26T19:13:34.118Z,94.82
2022-11-26T19:15:51.513Z,94.57
2022-11-26T19:18:08.605Z,94.66
2022-11-26T19:20:25.683Z,94.53
2022-11-26T19:22:42.999Z,94.56
2022-11-26T19:25:00.296Z,94.53
2022-11-26T19:27:17.576Z,94.64
2022-11-26T19:29:34.887Z,94.66
2022-11-26T19:31:53.346Z,94.60
2022-11-26T19:34:11.756Z,94.73
2022-11-26T19:36:28.853Z,94.57
2022-11-26T19:38:45.742Z,94.65
2022-11-26T19:41:02.907Z,94.69
2022-11-26T19:43:20.813Z,95.10
2022-11-26T19:45:38.208Z,94.75
2022-11-26T19:47:55.515Z,94.61
2022-11-26T19:50:12.813Z,94.92
2022-11-26T19:52:31.257Z,94.84
2022-11-26T19:54:49.356Z,95.04
2022-11-26T19:57:06.386Z,94.99
2022-11-26T19:59:23.352Z,94.86
2022-11-26T20:01:40.667Z,94.93
2022-11-26T20:03:58.038Z,95.21
2022-11-26T20:06:17.283Z,95.15
2022-11-26T20:08:34.570Z,94.83
2022-11-26T20:10:51.783Z,95.03
2022-11-26T20:13:09.038Z,94.71
2022-11-26T20:15:26.321Z,94.68
2022-11-26T20:17:51.302Z,94.53
2022-11-26T20:20:08.304Z,94.52
2022-11-26T20:22:28.083Z,94.42
2022-11-26T20:24:45.226Z,94.48
2022-11-26T20:27:02.485Z,94.29
2022-11-26T20:29:19.448Z,94.53
2022-11-26T20:31:36.401Z,94.65
2022-11-26T20:33:54.593Z,94.50
2022-11-26T20:36:11.904Z,94.52
2022-11-26T20:38:28.944Z,94.72
2022-11-26T20:40:45.900Z,94.38
2022-11-26T20:43:04.371Z,94.58
2022-11-26T20:45:21.357Z,94.65
2022-11-26T20:47:38.553Z,94.68
2022-11-26T20:49:55.698Z,94.82
2022-11-26T20:52:12.803Z,94.80
2022-11-26T20:54:30.165Z,94.69
2022-11-26T20:56:47.434Z,94.41
2022-11-26T20:59:04.375Z,94.08
2022-11-26T21:01:21.430Z,94.20
2022-11-26T21:03:38.861Z,94.13
2022-11-26T21:05:56.108Z,94.30
2022-11-26T21:08:13.403Z,93.97
2022-11-26T21:10:30.649Z,93.78
2022-11-26T21:12:47.838Z,94.21
2022-11-26T21:15:06.149Z,94.18
2022-11-26T21:17:23.318Z,94.28
2022-11-26T21:19:40.871Z,94.49
2022-11-26T21:21:58.291Z,94.12
2022-11-26T21:24:15.326Z,94.28
2022-11-26T21:26:32.638Z,94.38
2022-11-26T21:28:50.615Z,93.91
2022-11-26T21:31:09.026Z,94.19
2022-11-26T21:33:26.397Z,94.04
2022-11-26T21:35:43.416Z,94.08
2022-11-26T21:38:00.693Z,94.11
2022-11-26T21:40:18.687Z,94.19
2022-11-26T21:42:35.949Z,94.31
2022-11-26T21:44:52.896Z,94.29
2022-11-26T21:47:09.821Z,94.24
2022-11-26T21:49:26.922Z,94.21
2022-11-26T21:51:44.215Z,94.34
2022-11-26T21:54:01.205Z,94.08
2022-11-26T21:56:18.509Z,93.65
2022-11-26T21:58:35.883Z,94.50
2022-11-26T22:00:53.148Z,94.37
2022-11-26T22:03:11.701Z,94.46
2022-11-26T22:05:28.974Z,94.36
2022-11-26T22:07:46.637Z,94.57
2022-11-26T22:10:04.330Z,94.47
2022-11-26T22:12:21.699Z,94.45
2022-11-26T22:14:38.604Z,94.45
2022-11-26T22:16:56.587Z,94.38
2022-11-26T22:19:13.667Z,93.81
2022-11-26T22:21:31.738Z,94.25
2022-11-26T22:23:48.712Z,93.76
2022-11-26T22:26:05.999Z,93.24
2022-11-26T22:28:28.475Z,93.16
2022-11-26T22:30:47.248Z,92.62
2022-11-26T22:33:04.129Z,92.01
2022-11-26T22:35:21.460Z,92.07
2022-11-26T22:37:38.514Z,92.44
2022-11-26T22:39:55.727Z,91.82
2022-11-26T22:42:12.858Z,91.47
2022-11-26T22:44:29.960Z,91.15
2022-11-26T22:46:47.008Z,91.22
2022-11-26T22:49:04.418Z,91.17
2022-11-26T22:51:21.439Z,91.16
2022-11-26T22:53:38.521Z,91.22
2022-11-26T22:55:56.554Z,90.97
2022-11-26T22:58:14.657Z,90.58
2022-11-26T23:00:31.670Z,90.51
2022-11-26T23:02:49.002Z,90.02
2022-11-26T23:05:06.257Z,90.12
2022-11-26T23:07:25.814Z,89.70
2022-11-26T23:09:46.725Z,89.88
2022-11-26T23:12:05.191Z,90.05
2022-11-26T23:14:22.179Z,89.33
2022-11-26T23:16:39.688Z,89.99
2022-11-26T23:18:56.827Z,89.16
2022-11-26T23:21:13.852Z,89.69
2022-11-26T23:23:30.861Z,89.29
2022-11-26T23:25:47.947Z,89.58
2022-11-26T23:28:04.957Z,89.46
2022-11-26T23:30:21.968Z,90.14
2022-11-26T23:32:39.065Z,89.51
2022-11-26T23:34:56.157Z,89.79
2022-11-26T23:37:13.144Z,89.99
2022-11-26T23:39:31.063Z,89.94
2022-11-26T23:41:48.188Z,90.00
2022-11-26T23:44:06.552Z,89.79
2022-11-26T23:46:23.521Z,90.10
2022-11-26T23:48:40.730Z,90.21
2022-11-26T23:50:58.037Z,89.69
2022-11-26T23:53:16.134Z,89.43
2022-11-26T23:55:33.389Z,90.07
2022-11-26T23:57:50.862Z,90.14
